createdAt,value
2022-11-22T00:00:36.623Z,6.58
2022-11-22T00:03:03.521Z,6.60
2022-11-22T00:05:30.204Z,6.62
2022-11-22T00:07:56.887Z,6.64
2022-11-22T00:10:23.631Z,6.67
2022-11-22T00:12:50.343Z,6.70
2022-11-22T00:15:17.062Z,6.66
2022-11-22T00:17:43.776Z,6.71
2022-11-22T00:20:14.208Z,6.65
2022-11-22T00:22:44.482Z,6.66
2022-11-22T00:25:11.513Z,6.66
2022-11-22T00:27:38.209Z,6.65
2022-11-22T00:30:05.605Z,6.61
2022-11-22T00:32:32.323Z,6.59
2022-11-22T00:34:59.184Z,6.60
2022-11-22T00:37:25.985Z,6.63
2022-11-22T00:39:52.650Z,6.66
2022-11-22T00:42:19.369Z,6.63
2022-11-22T00:44:46.195Z,6.63
2022-11-22T00:47:12.873Z,6.64
2022-11-22T00:49:39.609Z,6.65
2022-11-22T00:52:06.432Z,6.66
2022-11-22T00:54:33.062Z,6.65
2022-11-22T00:56:59.804Z,6.64
2022-11-22T00:59:26.767Z,6.65
2022-11-22T01:01:53.748Z,6.62
2022-11-22T01:04:20.394Z,6.66
2022-11-22T01:06:47.083Z,6.63
2022-11-22T01:09:19.173Z,6.59
2022-11-22T01:11:45.889Z,6.64
2022-11-22T01:14:12.804Z,6.64
2022-11-22T01:16:39.567Z,6.67
2022-11-22T01:19:06.363Z,6.62
2022-11-22T01:21:33.207Z,6.65
2022-11-22T01:24:00.161Z,6.66
2022-11-22T01:26:26.841Z,6.68
2022-11-22T01:28:53.517Z,6.66
2022-11-22T01:31:20.236Z,6.66
2022-11-22T01:33:47.030Z,6.67
2022-11-22T01:36:13.684Z,6.66
2022-11-22T01:38:40.343Z,6.69
2022-11-22T01:41:07.059Z,6.68
2022-11-22T01:43:33.756Z,6.69
2022-11-22T01:46:09.475Z,6.68
2022-11-22T01:48:45.896Z,6.63
2022-11-22T01:51:30.247Z,6.62
2022-11-22T01:54:00.345Z,6.69
2022-11-22T01:56:28.533Z,6.70
2022-11-22T01:59:00.242Z,6.70
2022-11-22T02:01:27.628Z,6.72
2022-11-22T02:03:56.447Z,6.71
2022-11-22T02:06:23.452Z,6.71
2022-11-22T02:09:00.872Z,6.65
2022-11-22T02:11:33.622Z,6.73
2022-11-22T02:14:01.260Z,6.72
2022-11-22T02:16:28.009Z,6.72
2022-11-22T02:18:54.699Z,6.72
2022-11-22T02:21:21.484Z,6.77
2022-11-22T02:24:06.620Z,6.64
2022-11-22T02:26:33.332Z,6.74
2022-11-22T02:29:02.844Z,6.72
2022-11-22T02:31:35.437Z,6.68
2022-11-22T02:34:02.127Z,6.71
2022-11-22T02:36:30.591Z,6.76
2022-11-22T02:38:57.480Z,6.80
2022-11-22T02:41:24.200Z,6.80
2022-11-22T02:43:50.863Z,6.82
2022-11-22T02:46:20.791Z,6.82
2022-11-22T02:48:47.746Z,6.85
2022-11-22T02:51:16.952Z,6.85
2022-11-22T02:53:44.212Z,6.85
2022-11-22T02:56:10.844Z,6.83
2022-11-22T02:58:37.585Z,6.87
2022-11-22T03:01:04.335Z,6.86
2022-11-22T03:03:32.285Z,6.87
2022-11-22T03:05:58.983Z,6.86
2022-11-22T03:08:25.697Z,6.84
2022-11-22T03:10:52.343Z,6.85
2022-11-22T03:13:19.014Z,6.89
2022-11-22T03:15:48.711Z,6.86
2022-11-22T03:18:15.384Z,6.84
2022-11-22T03:20:42.063Z,6.87
2022-11-22T03:23:08.695Z,6.86
2022-11-22T03:25:39.215Z,6.84
2022-11-22T03:28:06.000Z,6.86
2022-11-22T03:30:32.713Z,6.87
2022-11-22T03:32:59.355Z,6.88
2022-11-22T03:35:25.996Z,6.90
2022-11-22T03:37:52.729Z,6.89
2022-11-22T03:40:21.007Z,6.90
2022-11-22T03:42:47.766Z,6.93
2022-11-22T03:45:14.465Z,6.96
2022-11-22T03:47:41.214Z,6.99
2022-11-22T03:50:08.217Z,7.05
2022-11-22T03:52:34.852Z,7.08
2022-11-22T03:55:01.576Z,7.11
2022-11-22T03:57:28.389Z,7.14
2022-11-22T03:59:55.256Z,7.15
2022-11-22T04:02:21.898Z,7.16
2022-11-22T04:04:48.753Z,7.20
2022-11-22T04:07:15.466Z,7.23
2022-11-22T04:09:42.132Z,7.25
2022-11-22T04:12:08.797Z,7.25
2022-11-22T04:14:54.201Z,7.25
2022-11-22T04:17:40.445Z,7.25
2022-11-22T04:20:30.858Z,7.23
2022-11-22T04:23:02.557Z,7.24
2022-11-22T04:25:31.740Z,7.26
2022-11-22T04:27:58.988Z,7.27
2022-11-22T04:30:44.687Z,7.27
2022-11-22T04:33:11.788Z,7.26
2022-11-22T04:35:39.907Z,7.27
2022-11-22T04:38:06.687Z,7.28
2022-11-22T04:40:33.942Z,7.28
2022-11-22T04:43:19.735Z,7.27
2022-11-22T04:45:46.803Z,7.26
2022-11-22T04:48:13.674Z,7.27
2022-11-22T04:51:00.404Z,7.29
2022-11-22T04:53:27.508Z,7.28
2022-11-22T04:55:54.569Z,7.30
2022-11-22T04:58:21.736Z,7.30
2022-11-22T05:00:48.877Z,7.31
2022-11-22T05:03:16.253Z,7.31
2022-11-22T05:05:43.823Z,7.31
2022-11-22T05:08:11.352Z,7.29
2022-11-22T05:10:56.827Z,7.27
2022-11-22T05:13:31.084Z,7.22
2022-11-22T05:15:58.759Z,7.23
2022-11-22T05:18:26.889Z,7.21
2022-11-22T05:20:54.150Z,7.20
2022-11-22T05:23:40.365Z,7.15
2022-11-22T05:26:07.670Z,7.10
2022-11-22T05:28:36.123Z,7.06
2022-11-22T05:31:10.192Z,6.96
2022-11-22T05:33:38.671Z,6.93
2022-11-22T05:36:06.341Z,6.88
2022-11-22T05:38:35.434Z,6.85
2022-11-22T05:41:05.784Z,6.81
2022-11-22T05:43:32.984Z,6.77
2022-11-22T05:46:25.056Z,6.62
2022-11-22T05:48:53.224Z,6.69
2022-11-22T05:51:21.413Z,6.66
2022-11-22T05:53:48.353Z,6.65
2022-11-22T05:56:20.925Z,6.60
2022-11-22T05:58:47.703Z,6.58
2022-11-22T06:01:16.821Z,6.58
2022-11-22T06:03:43.802Z,6.57
2022-11-22T06:06:10.827Z,6.59
2022-11-22T06:08:41.009Z,6.57
2022-11-22T06:11:21.791Z,6.51
2022-11-22T06:13:53.409Z,6.55
2022-11-22T06:16:20.203Z,6.55
2022-11-22T06:18:47.301Z,6.58
2022-11-22T06:21:16.446Z,6.53
2022-11-22T06:23:43.172Z,6.58
2022-11-22T06:26:12.192Z,6.55
2022-11-22T06:28:39.488Z,6.52
2022-11-22T06:31:08.793Z,6.51
2022-11-22T06:33:35.865Z,6.49
2022-11-22T06:36:10.709Z,6.46
2022-11-22T06:38:38.269Z,6.51
2022-11-22T06:41:07.624Z,6.55
2022-11-22T06:43:35.659Z,6.56
2022-11-22T06:46:03.706Z,6.57
2022-11-22T06:48:31.515Z,6.57
2022-11-22T06:50:59.664Z,6.57
2022-11-22T06:53:46.971Z,6.55
2022-11-22T06:56:32.462Z,6.52
2022-11-22T06:59:02.113Z,6.55
2022-11-22T07:01:29.788Z,6.56
2022-11-22T07:03:58.458Z,6.55
2022-11-22T07:06:30.973Z,6.56
2022-11-22T07:08:59.368Z,6.60
2022-11-22T07:11:28.074Z,6.55
2022-11-22T07:13:58.089Z,6.56
2022-11-22T07:16:27.054Z,6.55
2022-11-22T07:18:53.798Z,6.58
2022-11-22T07:21:22.702Z,6.58
2022-11-22T07:23:53.636Z,6.61
2022-11-22T07:26:21.916Z,6.61
2022-11-22T07:28:48.935Z,6.62
2022-11-22T07:31:16.482Z,6.69
2022-11-22T07:33:43.835Z,6.72
2022-11-22T07:36:13.814Z,6.74
2022-11-22T07:38:40.670Z,6.74
2022-11-22T07:41:08.065Z,6.77
2022-11-22T07:43:34.998Z,6.79
2022-11-22T07:46:43.082Z,6.72
2022-11-22T07:49:14.010Z,6.77
2022-11-22T07:51:40.697Z,6.81
2022-11-22T07:54:07.445Z,6.81
2022-11-22T07:56:34.516Z,6.84
2022-11-22T07:59:01.264Z,6.85
2022-11-22T08:01:28.032Z,6.85
2022-11-22T08:03:54.808Z,6.86
2022-11-22T08:06:21.463Z,6.89
2022-11-22T08:08:48.120Z,6.87
2022-11-22T08:11:14.848Z,6.92
2022-11-22T08:13:41.752Z,6.93
2022-11-22T08:16:13.367Z,6.92
2022-11-22T08:18:40.757Z,6.94
2022-11-22T08:21:12.398Z,6.95
2022-11-22T08:23:39.860Z,6.98
2022-11-22T08:26:07.750Z,6.99
2022-11-22T08:28:34.789Z,7.02
2022-11-22T08:31:10.553Z,6.99
2022-11-22T08:33:37.253Z,7.04
2022-11-22T08:36:04.606Z,7.06
2022-11-22T08:38:31.583Z,7.09
2022-11-22T08:40:58.404Z,7.11
2022-11-22T08:43:25.073Z,7.13
2022-11-22T08:45:57.022Z,7.13
2022-11-22T08:48:24.666Z,7.16
2022-11-22T08:50:56.707Z,7.17
2022-11-22T08:53:24.041Z,7.20
2022-11-22T08:55:51.639Z,7.21
2022-11-22T08:58:18.390Z,7.23
2022-11-22T09:00:45.264Z,7.24
2022-11-22T09:03:11.919Z,7.26
2022-11-22T09:08:25.548Z,7.28
2022-11-22T09:10:52.483Z,7.30
2022-11-22T09:13:19.113Z,7.31
2022-11-22T09:15:46.354Z,7.32
2022-11-22T09:18:13.096Z,7.34
2022-11-22T09:20:39.752Z,7.35
2022-11-22T09:23:06.430Z,7.36
2022-11-22T09:25:33.123Z,7.35
2022-11-22T09:28:02.967Z,7.37
2022-11-22T09:30:30.803Z,7.37
2022-11-22T09:32:57.578Z,7.38
2022-11-22T09:35:24.317Z,7.39
2022-11-22T09:37:50.977Z,7.43
2022-11-22T09:40:17.786Z,7.44
2022-11-22T09:43:07.757Z,7.39
2022-11-22T09:45:43.369Z,7.47
2022-11-22T09:48:36.125Z,7.43
2022-11-22T09:51:12.743Z,7.47
2022-11-22T09:53:49.834Z,7.47
2022-11-22T09:56:18.257Z,7.52
2022-11-22T09:58:48.741Z,7.53
2022-11-22T10:01:20.451Z,7.55
2022-11-22T10:04:26.645Z,7.52
2022-11-22T10:06:57.326Z,7.56
2022-11-22T10:09:36.749Z,7.57
2022-11-22T10:12:08.970Z,7.60
2022-11-22T10:14:40.231Z,7.59
2022-11-22T10:17:20.725Z,7.58
2022-11-22T10:20:02.192Z,7.60
2022-11-22T10:22:29.622Z,7.68
2022-11-22T10:24:59.368Z,7.69
2022-11-22T10:27:31.788Z,7.69
2022-11-22T10:30:06.233Z,7.70
2022-11-22T10:32:38.075Z,7.75
2022-11-22T10:35:14.268Z,7.73
2022-11-22T10:37:51.604Z,7.75
2022-11-22T10:40:43.987Z,7.74
2022-11-22T10:43:39.164Z,7.75
2022-11-22T10:46:26.029Z,7.78
2022-11-22T10:49:00.901Z,7.84
2022-11-22T10:51:46.333Z,7.85
2022-11-22T10:54:18.861Z,7.89
2022-11-22T10:57:06.805Z,7.90
2022-11-22T10:59:39.488Z,7.90
2022-11-22T11:02:12.211Z,7.92
2022-11-22T11:04:40.818Z,7.93
2022-11-22T11:07:13.280Z,7.94
2022-11-22T11:12:43.372Z,7.93
2022-11-22T11:15:18.321Z,7.94
2022-11-22T11:17:45.856Z,7.99
2022-11-22T11:20:26.113Z,7.95
2022-11-22T11:23:13.676Z,8.01
2022-11-22T11:25:41.013Z,8.02
2022-11-22T11:28:26.528Z,8.05
2022-11-22T11:30:55.240Z,8.05
2022-11-22T11:33:29.052Z,8.08
2022-11-22T11:36:07.828Z,8.10
2022-11-22T11:38:50.907Z,8.05
2022-11-22T11:41:25.001Z,8.08
2022-11-22T11:43:59.626Z,8.11
2022-11-22T11:46:50.841Z,8.14
2022-11-22T11:49:20.940Z,8.14
2022-11-22T11:51:49.093Z,8.15
2022-11-22T11:54:18.501Z,8.16
2022-11-22T11:56:52.925Z,8.15
2022-11-22T11:59:22.443Z,8.19
2022-11-22T12:01:53.603Z,8.20
2022-11-22T12:04:25.043Z,8.20
2022-11-22T12:07:19.275Z,8.14
2022-11-22T12:09:48.617Z,8.23
2022-11-22T12:12:24.539Z,8.24
2022-11-22T12:15:10.624Z,8.24
2022-11-22T12:17:46.805Z,8.22
2022-11-22T12:20:18.051Z,8.26
2022-11-22T12:23:23.532Z,8.21
2022-11-22T12:25:53.701Z,8.27
2022-11-22T12:28:22.467Z,8.29
2022-11-22T12:30:59.104Z,8.25
2022-11-22T12:33:36.406Z,8.25
2022-11-22T12:36:04.975Z,8.29
2022-11-22T12:38:39.687Z,8.29
2022-11-22T12:41:10.332Z,8.32
2022-11-22T12:43:59.517Z,8.32
2022-11-22T12:46:31.274Z,8.32
2022-11-22T12:49:01.603Z,8.33
2022-11-22T12:51:34.675Z,8.31
2022-11-22T12:54:05.124Z,8.33
2022-11-22T12:56:58.329Z,8.32
2022-11-22T12:59:46.664Z,8.26
2022-11-22T13:02:41.332Z,8.25
2022-11-22T13:05:18.123Z,8.28
2022-11-22T13:08:10.079Z,8.29
2022-11-22T13:10:52.044Z,8.26
2022-11-22T13:13:28.109Z,8.27
2022-11-22T13:15:56.532Z,8.32
2022-11-22T13:18:28.107Z,8.30
2022-11-22T13:21:07.741Z,8.27
2022-11-22T13:24:12.056Z,8.26
2022-11-22T13:26:48.277Z,8.29
2022-11-22T13:29:24.117Z,8.27
2022-11-22T13:32:04.312Z,8.27
2022-11-22T13:34:32.380Z,8.33
2022-11-22T13:37:12.131Z,8.27
2022-11-22T13:39:44.442Z,8.31
2022-11-22T13:42:20.565Z,8.29
2022-11-22T13:44:57.736Z,8.30
2022-11-22T13:47:24.399Z,8.31
2022-11-22T13:49:51.769Z,8.32
2022-11-22T13:52:19.709Z,8.31
2022-11-22T13:54:46.354Z,8.31
2022-11-22T13:57:34.594Z,8.22
2022-11-22T14:00:13.961Z,8.24
2022-11-22T14:02:48.216Z,8.25
2022-11-22T14:05:19.330Z,8.26
2022-11-22T14:07:49.603Z,8.26
2022-11-22T14:10:34.645Z,8.23
2022-11-22T14:13:04.172Z,8.26
2022-11-22T14:15:57.456Z,8.19
2022-11-22T14:18:47.353Z,8.16
2022-11-22T14:21:22.045Z,8.17
2022-11-22T14:23:57.418Z,8.20
2022-11-22T14:26:33.662Z,8.18
2022-11-22T14:29:35.823Z,8.10
2022-11-22T14:32:14.260Z,8.12
2022-11-22T14:35:16.995Z,8.09
2022-11-22T14:37:48.381Z,8.14
2022-11-22T14:40:19.711Z,8.14
2022-11-22T14:42:48.822Z,8.12
2022-11-22T14:45:23.135Z,8.09
2022-11-22T14:47:53.052Z,8.08
2022-11-22T14:50:27.572Z,8.08
2022-11-22T14:52:58.309Z,8.09
2022-11-22T14:55:32.110Z,8.03
2022-11-22T14:58:01.824Z,8.07
2022-11-22T15:00:44.874Z,8.02
2022-11-22T15:03:30.299Z,8.02
2022-11-22T15:09:14.433Z,8.00
2022-11-22T15:09:48.859Z,8.03
2022-11-22T15:12:50.387Z,7.96
2022-11-22T15:57:44.890Z,7.59
2022-11-22T16:00:21.396Z,7.52
2022-11-22T16:02:50.099Z,7.58
2022-11-22T16:06:07.736Z,7.52
2022-11-22T16:08:18.424Z,7.53
2022-11-22T16:10:49.299Z,7.51
2022-11-22T16:13:18.957Z,7.51
2022-11-22T16:16:03.106Z,7.54
2022-11-22T16:18:29.868Z,7.53
2022-11-22T16:21:04.258Z,7.51
2022-11-22T16:23:33.854Z,7.55
2022-11-22T16:26:25.070Z,7.51
2022-11-22T16:28:53.207Z,7.61
2022-11-22T16:31:23.173Z,7.64
2022-11-22T16:33:50.949Z,7.76
2022-11-22T16:36:19.212Z,7.78
2022-11-22T16:38:46.224Z,7.78
2022-11-22T16:41:19.688Z,7.74
2022-11-22T16:43:49.252Z,7.73
2022-11-22T16:46:16.045Z,7.70
2022-11-22T16:48:43.471Z,7.68
2022-11-22T16:51:36.132Z,7.58
2022-11-22T16:54:13.089Z,7.65
2022-11-22T17:05:17.647Z,7.67
2022-11-22T17:07:44.490Z,7.65
2022-11-22T17:10:11.346Z,7.67
2022-11-22T17:12:38.270Z,7.67
2022-11-22T17:15:05.492Z,7.69
2022-11-22T17:17:32.203Z,7.67
2022-11-22T17:19:58.906Z,7.66
2022-11-22T17:22:25.952Z,7.64
2022-11-22T17:24:52.775Z,7.64
2022-11-22T17:27:19.529Z,7.63
2022-11-22T17:29:51.182Z,7.64
2022-11-22T17:32:18.227Z,7.63
2022-11-22T17:34:45.266Z,7.66
2022-11-22T17:37:12.827Z,7.64
2022-11-22T17:39:40.246Z,7.63
2022-11-22T17:42:07.090Z,7.64
2022-11-22T17:44:34.270Z,7.63
2022-11-22T17:47:01.299Z,7.64
2022-11-22T17:49:28.519Z,7.66
2022-11-22T17:51:55.565Z,7.68
2022-11-22T17:54:22.343Z,7.66
2022-11-22T17:56:49.044Z,7.66
2022-11-22T17:59:15.738Z,7.65
2022-11-22T18:01:43.337Z,7.68
2022-11-22T18:04:10.227Z,7.68
2022-11-22T18:06:37.237Z,7.68
2022-11-22T18:09:04.398Z,7.68
2022-11-22T18:11:31.242Z,7.67
2022-11-22T18:13:57.960Z,7.65
2022-11-22T18:16:28.550Z,7.64
2022-11-22T18:18:57.515Z,7.63
2022-11-22T18:21:25.821Z,7.62
2022-11-22T18:23:53.020Z,7.61
2022-11-22T18:31:54.612Z,7.62
2022-11-22T18:34:22.541Z,7.64
2022-11-22T18:39:38.638Z,7.63
2022-11-22T18:42:07.721Z,7.64
2022-11-22T18:44:34.604Z,7.63
2022-11-22T18:47:01.653Z,7.65
2022-11-22T18:49:28.517Z,7.62
2022-11-22T18:51:55.845Z,7.65
2022-11-22T18:54:23.183Z,7.63
2022-11-22T18:56:51.158Z,7.64
2022-11-22T18:59:18.264Z,7.65
2022-11-22T19:01:47.086Z,7.61
2022-11-22T19:04:14.962Z,7.62
2022-11-22T19:06:42.301Z,7.63
2022-11-22T19:09:09.087Z,7.63
2022-11-22T19:11:35.884Z,7.62
2022-11-22T19:14:02.691Z,7.64
2022-11-22T19:16:30.279Z,7.64
2022-11-22T19:18:58.283Z,7.61
2022-11-22T19:21:26.854Z,7.63
2022-11-22T19:23:54.295Z,7.60
2022-11-22T19:26:23.465Z,7.63
2022-11-22T19:28:53.520Z,7.60
2022-11-22T19:31:22.108Z,7.61
2022-11-22T19:33:49.295Z,7.61
2022-11-22T19:36:18.216Z,7.58
2022-11-22T19:38:45.505Z,7.56
2022-11-22T19:41:14.666Z,7.53
2022-11-22T19:43:41.452Z,7.53
2022-11-22T19:46:09.282Z,7.52
2022-11-22T19:48:36.447Z,7.49
2022-11-22T19:51:13.838Z,7.42
2022-11-22T19:53:41.944Z,7.45
2022-11-22T19:56:16.673Z,7.37
2022-11-22T19:58:44.498Z,7.40
2022-11-22T20:01:15.656Z,7.38
2022-11-22T20:03:43.381Z,7.37
2022-11-22T20:06:12.170Z,7.34
2022-11-22T20:08:39.436Z,7.35
2022-11-22T20:11:08.131Z,7.31
2022-11-22T20:13:37.057Z,7.31
2022-11-22T20:16:12.544Z,7.28
2022-11-22T20:18:39.392Z,7.32
2022-11-22T20:21:07.498Z,7.34
2022-11-22T20:23:34.377Z,7.35
2022-11-22T20:26:11.076Z,7.31
2022-11-22T20:28:38.563Z,7.32
2022-11-22T20:31:16.552Z,7.27
2022-11-22T20:33:45.031Z,7.34
2022-11-22T20:36:13.980Z,7.31
2022-11-22T20:38:41.876Z,7.31
2022-11-22T20:41:09.865Z,7.28
2022-11-22T20:43:36.619Z,7.28
2022-11-22T20:46:04.633Z,7.27
2022-11-22T20:48:31.957Z,7.28
2022-11-22T20:50:59.810Z,7.25
2022-11-22T20:53:27.402Z,7.23
2022-11-22T20:55:54.301Z,7.21
2022-11-22T20:58:21.306Z,7.19
2022-11-22T21:00:48.306Z,7.18
2022-11-22T21:03:15.276Z,7.18
2022-11-22T21:05:44.919Z,7.15
2022-11-22T21:08:11.636Z,7.16
2022-11-22T21:10:38.640Z,7.12
2022-11-22T21:13:05.412Z,7.09
2022-11-22T21:15:32.123Z,7.08
2022-11-22T21:18:23.499Z,7.04
2022-11-22T21:20:46.607Z,7.02
2022-11-22T21:23:13.351Z,7.00
2022-11-22T21:25:40.040Z,7.00
2022-11-22T21:28:06.727Z,6.96
2022-11-22T21:30:33.479Z,6.98
2022-11-22T21:33:00.324Z,6.95
2022-11-22T21:35:27.205Z,6.93
2022-11-22T21:37:54.511Z,6.94
2022-11-22T21:40:21.393Z,6.92
2022-11-22T21:42:48.228Z,6.83
2022-11-22T21:45:15.130Z,6.85
2022-11-22T21:47:42.005Z,6.83
2022-11-22T21:50:11.884Z,6.86
2022-11-22T21:52:38.967Z,6.82
2022-11-22T21:55:06.172Z,6.82
2022-11-22T21:57:32.959Z,6.85
2022-11-22T21:59:59.665Z,6.80
2022-11-22T22:02:29.478Z,6.79
2022-11-22T22:04:56.156Z,6.79
2022-11-22T22:07:45.098Z,6.72
2022-11-22T22:10:09.690Z,6.70
2022-11-22T22:12:36.369Z,6.69
2022-11-22T22:15:03.196Z,6.72
2022-11-22T22:17:30.004Z,6.68
2022-11-22T22:19:57.245Z,6.65
2022-11-22T22:22:23.950Z,6.68
2022-11-22T22:24:50.669Z,6.72
2022-11-22T22:27:17.474Z,6.70
2022-11-22T22:29:44.238Z,6.67
2022-11-22T22:32:11.105Z,6.62
2022-11-22T22:34:37.818Z,6.60
2022-11-22T22:37:04.498Z,6.56
2022-11-22T22:39:31.677Z,6.56
2022-11-22T22:41:58.731Z,6.51
2022-11-22T22:44:25.363Z,6.54
2022-11-22T22:46:52.043Z,6.56
2022-11-22T22:49:18.750Z,6.56
2022-11-22T22:51:45.681Z,6.56
2022-11-22T22:54:12.466Z,6.53
2022-11-22T22:56:39.210Z,6.50
2022-11-22T22:59:07.764Z,6.43
2022-11-22T23:01:34.580Z,6.38
2022-11-22T23:04:02.058Z,6.36
2022-11-22T23:06:31.448Z,6.34
2022-11-22T23:08:58.443Z,6.35
2022-11-22T23:11:46.560Z,6.31
2022-11-22T23:14:15.115Z,6.27
2022-11-22T23:16:42.001Z,6.26
2022-11-22T23:19:08.976Z,6.32
2022-11-22T23:21:35.768Z,6.29
2022-11-22T23:24:02.719Z,6.33
2022-11-22T23:26:29.424Z,6.34
2022-11-22T23:28:56.265Z,6.40
2022-11-22T23:31:22.983Z,6.41
2022-11-22T23:33:49.989Z,6.39
2022-11-22T23:36:18.426Z,6.25
2022-11-22T23:38:45.325Z,6.32
2022-11-22T23:41:13.855Z,6.24
2022-11-22T23:43:41.440Z,6.24
2022-11-22T23:46:15.882Z,6.21
2022-11-22T23:48:46.607Z,6.20
2022-11-22T23:51:14.324Z,6.30
2022-11-22T23:53:41.374Z,6.32
2022-11-22T23:56:21.858Z,6.21
2022-11-22T23:58:49.252Z,6.23
